KFST/FST METAR and TAF weather

Enter ICAO airport designator
Station Type Date Time Source
KFST METAR 2019/02/22 22:53 UTC NOAA

KFST 222253Z AUTO 19019G25KT 10SM CLR 23/M06 A2971 RMK AO2 PK WND 19029/2237 SLP028 T02331056


Station Type Date Time Source
KFST Decoded METAR 2019/02/22 22:53 UTC NOAA

FORT STOCKTON PECOS CO AIRPORT , TX, United States (KFST) 30-55N 102-55W 918M
Feb 22, 2019 - 05:53 PM EST / 2019.02.22 2253 UTC
Wind: from the S (190 degrees) at 22 MPH (19 KT) gusting to 29 MPH (25 KT):0
Visibility: 10 mile(s):0
Sky conditions: clear
Temperature: 73.9 F (23.3 C)
Dew Point: 21.9 F (-5.6 C)
Relative Humidity: 14%
Pressure (altimeter): 29.71 in. Hg (1006 hPa)
ob: KFST 222253Z AUTO 19019G25KT 10SM CLR 23/M06 A2971 RMK AO2 PK WND 19029/2237 SLP028 T02331056
cycle: 23

Station Type Date Time Source
KFST TAF 2019/02/22 20:09 UTC NOAA

TAF
AMD KFST 222007Z 2220/2318 21014G24KT P6SM SKC
FM230500 24020G30KT P6SM SCT250
FM231200 26025G35KT 6SM BLDU SKC


Example: see airport list